Time;durP1;ratioP1;P1;durP2;ratioP2;P2;SDS_P1;SDS_P2;PMS_P1;PMS_P2;Temp;Humidity;BMP_temperature;BMP_pressure;BME280_temperature;BME280_humidity;BME280_pressure;Samples;Min_cycle;Max_cycle;Signal;HPM_P1;HPM_P2
2023/09/20 00:01:51;;;;;;;;;;;;;;;23.09;52.36;99997.50;4276061;33;33304;-75
2023/09/20 00:04:20;;;;;;;;;;;;;;;23.20;52.19;99995.69;4276120;33;33863;-78
2023/09/20 00:06:47;;;;;;;;;;;;;;;23.27;52.36;100005.34;4275334;33;33858;-79
2023/09/20 00:09:15;;;;;;;;;;;;;;;23.03;53.10;99997.50;4271846;33;34043;-76
2023/09/20 00:11:45;;;;;;;;;;;;;;;23.65;51.20;99999.00;4275313;33;34042;-80
2023/09/20 00:14:12;;;;;;;;;;;;;;;23.51;51.14;100000.84;4274946;33;33957;-76
2023/09/20 00:16:40;;;;;;;;;;;;;;;23.36;51.68;100007.06;4276136;33;33847;-74
2023/09/20 00:19:08;;;;;;;;;;;;;;;23.70;50.95;100018.38;4276311;33;34555;-81
2023/09/20 00:21:35;;;;;;;;;;;;;;;23.89;50.29;100013.00;4265987;33;33470;-73
2023/09/20 00:24:05;;;;;;;;;;;;;;;24.39;48.03;100019.69;4275153;33;33523;-77
2023/09/20 00:26:33;;;;;;;;;;;;;;;22.96;52.29;100008.03;4274746;33;34749;-75
2023/09/20 00:29:05;;;;;;;;;;;;;;;23.54;50.85;100014.03;4275189;33;33742;-76
2023/09/20 00:31:33;;;;;;;;;;;;;;;23.18;51.83;100018.59;4277443;33;33769;-79
2023/09/20 00:34:03;;;;;;;;;;;;;;;23.49;51.21;100013.19;4272331;33;34748;-81
2023/09/20 00:36:31;;;;;;;;;;;;;;;22.97;52.45;100009.81;4266231;33;32517;-75
2023/09/20 00:38:58;;;;;;;;;;;;;;;22.60;53.89;100014.28;4274766;33;34551;-80
2023/09/20 00:41:27;;;;;;;;;;;;;;;22.83;52.88;100022.19;4286209;33;34344;-76
2023/09/20 00:43:54;;;;;;;;;;;;;;;23.36;51.64;100007.94;4278017;33;34003;-78
2023/09/20 00:46:22;;;;;;;;;;;;;;;24.38;48.65;100017.94;4282190;33;33874;-75
2023/09/20 00:48:51;;;;;;;;;;;;;;;23.84;49.90;100014.81;4260707;33;34100;-77
2023/09/20 00:51:21;;;;;;;;;;;;;;;23.06;52.45;100023.91;4274505;33;33512;-76
2023/09/20 00:53:54;;;;;;;;;;;;;;;23.33;51.19;100017.66;4256204;33;34007;-76
2023/09/20 00:56:21;;;;;;;;;;;;;;;23.66;50.45;100015.72;4256996;33;33738;-74
2023/09/20 00:58:53;;;;;;;;;;;;;;;23.46;50.81;100013.19;4258083;33;34246;-77
2023/09/20 01:01:20;;;;;;;;;;;;;;;23.13;52.01;100020.37;4276773;33;33363;-79
2023/09/20 01:03:48;;;;;;;;;;;;;;;23.18;51.39;100015.97;4267906;33;34261;-78
2023/09/20 01:06:17;;;;;;;;;;;;;;;23.39;50.80;100003.53;4272801;33;34991;-74
2023/09/20 01:08:46;;;;;;;;;;;;;;;23.89;49.52;100002.41;4261742;33;35294;-78
2023/09/20 01:11:15;;;;;;;;;;;;;;;23.61;49.82;100002.56;4275679;33;33347;-80
2023/09/20 01:13:43;;;;;;;;;;;;;;;23.52;50.10;100007.88;4259907;33;34549;-76
2023/09/20 01:16:14;;;;;;;;;;;;;;;22.66;52.60;100006.34;4263304;33;34814;-73
2023/09/20 01:18:44;;;;;;;;;;;;;;;23.04;51.71;100000.13;4270834;33;34153;-76
2023/09/20 01:21:12;;;;;;;;;;;;;;;22.68;52.59;99995.78;4262577;33;34194;-81
2023/09/20 01:23:42;;;;;;;;;;;;;;;22.67;52.53;99997.53;4280240;33;33624;-78
2023/09/20 01:26:11;;;;;;;;;;;;;;;22.89;52.08;99995.75;4271104;33;33636;-74
2023/09/20 01:28:39;;;;;;;;;;;;;;;22.72;52.73;100002.81;4274858;33;34627;-75
2023/09/20 01:31:07;;;;;;;;;;;;;;;22.77;52.51;99996.66;4284879;33;34165;-76
2023/09/20 01:33:35;;;;;;;;;;;;;;;23.20;50.96;99998.34;4279564;33;34303;-78
2023/09/20 01:36:04;;;;;;;;;;;;;;;22.95;51.46;100003.66;4273179;33;33959;-77
2023/09/20 01:38:34;;;;;;;;;;;;;;;22.69;52.44;100013.37;4283301;33;33801;-77
2023/09/20 01:41:03;;;;;;;;;;;;;;;23.16;51.28;100002.75;4264094;33;33087;-78
2023/09/20 01:43:31;;;;;;;;;;;;;;;22.57;52.65;100004.59;4265447;33;32635;-79
2023/09/20 01:45:58;;;;;;;;;;;;;;;22.95;52.05;100006.28;4283182;33;34233;-76
2023/09/20 01:48:26;;;;;;;;;;;;;;;23.47;50.50;100004.38;4275274;33;35254;-79
2023/09/20 01:50:54;;;;;;;;;;;;;;;22.70;51.95;100015.16;4274960;33;33324;-76
2023/09/20 01:53:24;;;;;;;;;;;;;;;23.09;51.38;100008.06;4283917;33;34444;-78
2023/09/20 01:55:52;;;;;;;;;;;;;;;22.91;51.91;100009.84;4286759;33;33624;-77
2023/09/20 01:58:20;;;;;;;;;;;;;;;22.87;51.87;100012.47;4264681;33;34511;-79
2023/09/20 02:00:50;;;;;;;;;;;;;;;22.92;51.74;100016.84;4276936;33;33129;-77
2023/09/20 02:03:18;;;;;;;;;;;;;;;22.75;52.43;100018.66;4280777;33;35101;-79
2023/09/20 02:05:47;;;;;;;;;;;;;;;22.70;52.25;100012.50;4282597;33;34997;-82
2023/09/20 02:08:16;;;;;;;;;;;;;;;22.66;52.71;100003.72;4288667;33;34148;-76
2023/09/20 02:10:45;;;;;;;;;;;;;;;22.24;53.93;100009.84;4270763;33;34196;-80
2023/09/20 02:13:15;;;;;;;;;;;;;;;22.55;52.83;100013.41;4281708;33;33329;-74
2023/09/20 02:15:44;;;;;;;;;;;;;;;22.97;51.58;100001.88;4267119;33;34053;-76
2023/09/20 02:18:12;;;;;;;;;;;;;;;23.54;50.17;100000.81;4281542;33;34304;-82
2023/09/20 02:20:39;;;;;;;;;;;;;;;23.19;51.08;99993.06;4283224;33;33720;-78
2023/09/20 02:23:12;;;;;;;;;;;;;;;23.26;50.69;100000.94;4277636;33;34922;-78
2023/09/20 02:25:42;;;;;;;;;;;;;;;22.58;52.37;100006.37;4271415;33;34066;-77
2023/09/20 02:28:10;;;;;;;;;;;;;;;23.20;50.80;100011.56;4264790;33;34037;-78
2023/09/20 02:30:38;;;;;;;;;;;;;;;22.61;51.98;100013.37;4270735;33;33133;-78
2023/09/20 02:33:07;;;;;;;;;;;;;;;22.43;53.05;100013.41;4277333;33;34756;-78
2023/09/20 02:35:36;;;;;;;;;;;;;;;22.19;53.50;100008.09;4275110;33;34094;-80
2023/09/20 02:38:05;;;;;;;;;;;;;;;23.30;50.29;100007.97;4274255;33;34603;-72
2023/09/20 02:40:35;;;;;;;;;;;;;;;23.06;50.85;100005.41;4268771;33;31911;-78
2023/09/20 02:43:08;;;;;;;;;;;;;;;22.26;53.01;100002.84;4289513;33;33557;-73
2023/09/20 02:45:36;;;;;;;;;;;;;;;22.52;52.29;100009.00;4277497;33;35113;-76
2023/09/20 02:48:06;;;;;;;;;;;;;;;22.62;51.73;100011.62;4284815;33;34975;-79
2023/09/20 02:50:35;;;;;;;;;;;;;;;22.81;50.81;100013.34;4283490;33;33140;-78
2023/09/20 02:53:03;;;;;;;;;;;;;;;22.84;51.42;100013.34;4286096;33;34485;-78
2023/09/20 02:55:31;;;;;;;;;;;;;;;22.17;53.08;100020.41;4276028;33;34753;-81
2023/09/20 02:57:59;;;;;;;;;;;;;;;22.22;52.91;100022.16;4278818;33;34579;-76
2023/09/20 03:00:28;;;;;;;;;;;;;;;21.69;54.72;100016.81;4279658;33;34259;-80
2023/09/20 03:03:04;;;;;;;;;;;;;;;22.52;52.42;100016.94;4276008;33;34032;-78
2023/09/20 03:05:33;;;;;;;;;;;;;;;22.16;53.07;100016.00;4277473;33;33249;-82
2023/09/20 03:08:04;;;;;;;;;;;;;;;22.54;51.54;100015.16;4277827;33;33908;-72
2023/09/20 03:10:33;;;;;;;;;;;;;;;22.22;53.13;100011.62;4269092;33;33720;-81
2023/09/20 03:13:03;;;;;;;;;;;;;;;21.73;54.49;100022.94;4273106;33;34805;-76
2023/09/20 03:15:32;;;;;;;;;;;;;;;23.13;50.41;100015.09;4274834;33;34235;-80
2023/09/20 03:18:02;;;;;;;;;;;;;;;23.82;48.69;100016.59;4271149;33;34266;-77
2023/09/20 03:20:32;;;;;;;;;;;;;;;23.53;49.46;100021.09;4268415;33;33419;-81
2023/09/20 03:23:03;;;;;;;;;;;;;;;22.73;51.65;100026.56;4272718;33;35066;-78
2023/09/20 03:25:36;;;;;;;;;;;;;;;22.45;52.32;100020.44;4261199;33;34131;-76
2023/09/20 03:28:04;;;;;;;;;;;;;;;22.27;53.27;100023.06;4281116;33;34369;-79
2023/09/20 03:30:33;;;;;;;;;;;;;;;22.22;53.04;100027.44;4276619;33;34199;-76
2023/09/20 03:33:00;;;;;;;;;;;;;;;22.96;51.03;100023.87;4285580;33;33957;-78
2023/09/20 03:35:29;;;;;;;;;;;;;;;23.03;50.78;100019.53;4273816;33;33761;-78
2023/09/20 03:37:56;;;;;;;;;;;;;;;23.44;49.94;100017.63;4281955;33;35015;-73
2023/09/20 03:40:24;;;;;;;;;;;;;;;23.13;50.66;100015.09;4282593;33;34367;-73
2023/09/20 03:42:55;;;;;;;;;;;;;;;22.69;51.83;100018.66;4276998;33;34225;-73
2023/09/20 03:45:22;;;;;;;;;;;;;;;22.02;54.01;100015.12;4280813;33;34106;-80
2023/09/20 03:47:57;;;;;;;;;;;;;;;22.24;53.32;100009.84;4280664;33;34281;-75
2023/09/20 03:50:25;;;;;;;;;;;;;;;22.38;52.63;100008.12;4279860;33;33299;-73
2023/09/20 03:52:53;;;;;;;;;;;;;;;22.16;53.46;100012.50;4279184;33;34211;-79
2023/09/20 03:55:21;;;;;;;;;;;;;;;21.72;54.40;100006.25;4273685;33;33977;-76
2023/09/20 03:57:51;;;;;;;;;;;;;;;22.40;52.49;100009.00;4271212;33;35103;-79
2023/09/20 04:00:27;;;;;;;;;;;;;;;22.60;51.95;100014.28;4274410;33;33484;-76
2023/09/20 04:02:58;;;;;;;;;;;;;;;22.58;52.22;100011.66;4275208;33;34132;-77
2023/09/20 04:05:26;;;;;;;;;;;;;;;22.27;52.71;100009.87;4275518;33;34161;-75
2023/09/20 04:08:14;;;;;;;;;;;;;;;22.12;53.45;100005.44;4280757;33;34363;-75
2023/09/20 04:10:42;;;;;;;;;;;;;;;22.48;52.07;100009.87;4281001;33;35060;-76
2023/09/20 04:13:09;;;;;;;;;;;;;;;22.43;52.62;100014.28;4261569;33;33391;-80
2023/09/20 04:15:40;;;;;;;;;;;;;;;22.27;52.97;100016.06;4279515;33;35573;-74
2023/09/20 04:18:08;;;;;;;;;;;;;;;22.45;52.65;100012.53;4272067;33;34273;-77
2023/09/20 04:20:37;;;;;;;;;;;;;;;22.82;51.25;100015.12;4282433;33;33082;-72
2023/09/20 04:23:06;;;;;;;;;;;;;;;22.97;50.77;100015.09;4278123;33;35022;-73
2023/09/20 04:25:34;;;;;;;;;;;;;;;23.02;50.82;100016.84;4286511;33;33881;-77
2023/09/20 04:28:01;;;;;;;;;;;;;;;22.71;51.51;100016.91;4281170;33;33894;-77
2023/09/20 04:30:30;;;;;;;;;;;;;;;22.75;50.90;100019.56;4281676;33;34254;-77
2023/09/20 04:32:58;;;;;;;;;;;;;;;22.48;51.83;100020.44;4280828;33;34003;-79
2023/09/20 04:35:27;;;;;;;;;;;;;;;22.52;51.93;100016.94;4263842;33;35562;-73
2023/09/20 04:37:55;;;;;;;;;;;;;;;22.40;52.71;100024.84;4277621;33;34234;-73
2023/09/20 04:40:24;;;;;;;;;;;;;;;22.42;52.15;100023.06;4275816;33;34292;-74
2023/09/20 04:42:51;;;;;;;;;;;;;;;22.95;50.77;100029.19;4287326;33;34312;-77
2023/09/20 04:45:19;;;;;;;;;;;;;;;22.93;50.92;100028.31;4286865;33;34090;-78
2023/09/20 04:47:46;;;;;;;;;;;;;;;22.34;52.54;100043.31;4285132;33;34696;-76
2023/09/20 04:50:16;;;;;;;;;;;;;;;22.18;53.13;100037.97;4274475;33;33400;-80
2023/09/20 04:52:46;;;;;;;;;;;;;;;21.83;54.26;100042.28;4283282;33;33801;-78
2023/09/20 04:55:15;;;;;;;;;;;;;;;22.16;53.66;100042.38;4279763;33;33974;-76
2023/09/20 04:57:43;;;;;;;;;;;;;;;22.80;51.95;100043.31;4274231;33;34210;-76
2023/09/20 05:00:11;;;;;;;;;;;;;;;24.10;47.80;100043.72;4260551;33;31152;-76
2023/09/20 05:02:39;;;;;;;;;;;;;;;23.52;49.64;100050.19;4274071;33;34442;-76
2023/09/20 05:05:06;;;;;;;;;;;;;;;23.01;51.04;100052.09;4271845;33;34827;-74
2023/09/20 05:07:34;;;;;;;;;;;;;;;22.46;52.32;100059.12;4277660;33;35134;-80
2023/09/20 05:10:02;;;;;;;;;;;;;;;22.88;51.41;100057.37;4274052;33;34129;-76
2023/09/20 05:12:30;;;;;;;;;;;;;;;22.66;51.34;100058.28;4272316;33;34145;-74
2023/09/20 05:14:59;;;;;;;;;;;;;;;22.78;51.20;100058.28;4278784;33;34113;-80
2023/09/20 05:17:27;;;;;;;;;;;;;;;23.02;51.52;100064.41;4279365;33;34294;-76
2023/09/20 05:19:54;;;;;;;;;;;;;;;22.46;52.59;100063.56;4275901;33;33520;-77
2023/09/20 05:22:24;;;;;;;;;;;;;;;23.17;50.91;100054.69;4277312;33;34920;-79
2023/09/20 05:24:52;;;;;;;;;;;;;;;22.43;52.61;100064.44;4273680;33;34591;-79
2023/09/20 05:27:20;;;;;;;;;;;;;;;22.87;51.47;100063.56;4278057;33;35067;-78
2023/09/20 05:29:50;;;;;;;;;;;;;;;22.87;51.72;100060.91;4276690;33;34285;-77
2023/09/20 05:32:19;;;;;;;;;;;;;;;22.90;51.68;100066.16;4288296;33;33338;-76
2023/09/20 05:34:51;;;;;;;;;;;;;;;23.25;51.03;100062.59;4244774;33;33743;-79
2023/09/20 05:37:19;;;;;;;;;;;;;;;23.53;50.51;100070.47;4274763;33;34471;-73
2023/09/20 05:39:48;;;;;;;;;;;;;;;23.62;50.34;100065.13;4261290;33;32472;-76
2023/09/20 05:42:15;;;;;;;;;;;;;;;23.68;50.32;100072.13;4259848;33;34022;-79
2023/09/20 05:44:43;;;;;;;;;;;;;;;24.28;48.61;100075.38;4260188;33;34907;-77
2023/09/20 05:47:10;;;;;;;;;;;;;;;24.24;49.02;100075.41;4273231;33;34498;-76
2023/09/20 05:49:38;;;;;;;;;;;;;;;24.37;48.63;100079.72;4275479;33;33455;-77
2023/09/20 05:52:06;;;;;;;;;;;;;;;24.35;49.04;100097.38;4283049;33;34688;-76
2023/09/20 05:54:35;;;;;;;;;;;;;;;24.58;48.31;100089.31;4275924;33;35049;-76
2023/09/20 05:57:03;;;;;;;;;;;;;;;24.98;47.07;100094.25;4277269;33;34740;-75
2023/09/20 05:59:31;;;;;;;;;;;;;;;24.58;48.02;100089.31;4279010;33;33738;-75
2023/09/20 06:01:58;;;;;;;;;;;;;;;25.02;47.46;100084.50;4276697;33;33850;-77
2023/09/20 06:04:26;;;;;;;;;;;;;;;23.94;50.37;100080.00;4275345;33;34286;-77
2023/09/20 06:06:54;;;;;;;;;;;;;;;25.38;46.93;100082.38;4276943;33;33663;-77
2023/09/20 06:09:21;;;;;;;;;;;;;;;26.02;45.55;100086.91;4276864;33;33724;-76
2023/09/20 06:11:50;;;;;;;;;;;;;;;25.79;45.88;100079.25;4273045;33;34354;-78
2023/09/20 06:14:18;;;;;;;;;;;;;;;25.97;45.49;100094.06;4277084;33;35123;-76
2023/09/20 06:16:45;;;;;;;;;;;;;;;26.11;45.23;100088.56;4278994;33;34061;-78
2023/09/20 06:19:14;;;;;;;;;;;;;;;26.03;45.46;100091.31;4282627;33;33180;-77
2023/09/20 06:21:43;;;;;;;;;;;;;;;25.82;46.04;100083.63;4271993;33;35513;-77
2023/09/20 06:24:11;;;;;;;;;;;;;;;25.24;47.27;100099.31;4280338;33;33945;-73
2023/09/20 06:26:40;;;;;;;;;;;;;;;25.52;46.71;100091.06;4274704;33;34284;-75
2023/09/20 06:29:09;;;;;;;;;;;;;;;25.47;47.04;100093.75;4268859;33;34092;-80
2023/09/20 06:31:37;;;;;;;;;;;;;;;25.83;46.42;100096.88;4275938;33;34630;-76
2023/09/20 06:34:04;;;;;;;;;;;;;;;25.91;46.66;100096.81;4270254;33;34158;-77
2023/09/20 06:36:33;;;;;;;;;;;;;;;26.31;45.44;100098.91;4272495;33;34862;-75
2023/09/20 06:39:00;;;;;;;;;;;;;;;26.17;45.63;100092.91;4272549;33;33612;-78
2023/09/20 06:41:28;;;;;;;;;;;;;;;26.38;45.47;100100.53;4283747;33;34890;-81
2023/09/20 06:43:58;;;;;;;;;;;;;;;26.07;46.18;100103.62;4273316;33;35053;-75
2023/09/20 06:46:25;;;;;;;;;;;;;;;26.52;45.13;100102.09;4273419;33;33852;-72
2023/09/20 06:48:55;;;;;;;;;;;;;;;26.46;45.12;100101.31;4282444;33;33421;-80
2023/09/20 06:51:23;;;;;;;;;;;;;;;26.47;45.10;100100.41;4279758;33;33943;-79
2023/09/20 06:53:50;;;;;;;;;;;;;;;26.59;45.01;100103.81;4278643;33;34226;-76
2023/09/20 06:56:18;;;;;;;;;;;;;;;26.76;44.71;100101.75;4276331;33;34227;-79
2023/09/20 06:58:46;;;;;;;;;;;;;;;26.62;45.33;100099.31;4283126;33;34216;-76
2023/09/20 07:01:13;;;;;;;;;;;;;;;26.64;45.45;100102.84;4282626;33;34858;-80
2023/09/20 07:03:42;;;;;;;;;;;;;;;26.43;46.13;100104.00;4275237;33;34159;-76
2023/09/20 07:06:09;;;;;;;;;;;;;;;26.39;46.34;100107.63;4275007;33;34228;-81
2023/09/20 07:08:36;;;;;;;;;;;;;;;27.12;44.93;100110.00;4275164;33;33500;-75
2023/09/20 07:11:04;;;;;;;;;;;;;;;26.49;46.34;100109.22;4262876;33;32655;-80
2023/09/20 07:13:33;;;;;;;;;;;;;;;27.04;45.36;100106.56;4261568;33;33306;-74
2023/09/20 07:16:04;;;;;;;;;;;;;;;27.28;44.79;100120.38;4274878;33;35202;-75
2023/09/20 07:18:33;;;;;;;;;;;;;;;27.45;44.21;100113.81;4274846;33;34378;-77
2023/09/20 07:21:01;;;;;;;;;;;;;;;27.64;43.82;100113.44;4274565;33;33882;-77
2023/09/20 07:23:32;;;;;;;;;;;;;;;27.67;43.90;100117.84;4276538;33;34035;-74
2023/09/20 07:26:00;;;;;;;;;;;;;;;27.99;43.03;100119.81;4274677;33;34145;-78
2023/09/20 07:28:27;;;;;;;;;;;;;;;28.01;42.83;100116.25;4282506;33;33282;-78
2023/09/20 07:30:55;;;;;;;;;;;;;;;27.81;42.98;100121.06;4280305;33;34762;-77
2023/09/20 07:33:23;;;;;;;;;;;;;;;28.03;42.68;100119.75;4276566;33;34684;-79
2023/09/20 07:35:58;;;;;;;;;;;;;;;28.12;42.30;100120.44;4280029;33;33950;-81
2023/09/20 07:38:28;;;;;;;;;;;;;;;27.46;43.06;100125.31;4277880;33;34644;-81
2023/09/20 07:41:08;;;;;;;;;;;;;;;27.34;43.49;100122.91;4270706;33;34246;-77
2023/09/20 07:43:38;;;;;;;;;;;;;;;28.01;42.10;100123.38;4272191;33;34061;-83
2023/09/20 07:46:06;;;;;;;;;;;;;;;28.32;41.50;100120.88;4259430;33;33504;-74
2023/09/20 07:48:37;;;;;;;;;;;;;;;29.08;39.91;100130.59;4272110;33;34276;-79
2023/09/20 07:51:10;;;;;;;;;;;;;;;28.74;40.51;100126.13;4274674;33;35044;-74
2023/09/20 07:53:42;;;;;;;;;;;;;;;29.55;39.13;100120.47;4273900;33;33801;-78
2023/09/20 07:56:13;;;;;;;1.77;0.90;;;;;;;29.69;38.78;100112.06;4271188;33;35264;-78
2023/09/20 07:58:41;;;;;;;3.90;0.95;;;;;;;29.70;38.05;100115.59;4267181;33;33563;-78
2023/09/20 08:01:21;;;;;;;1.98;0.70;;;;;;;29.75;37.24;100116.38;4281108;33;35173;-79
2023/09/20 08:03:51;;;;;;;1.87;0.70;;;;;;;29.67;36.94;100108.56;4267198;33;33912;-81
2023/09/20 08:06:21;;;;;;;;;;;;;;;29.91;35.99;100114.97;4275196;33;33296;-81
2023/09/20 08:08:48;;;;;;;;;;;;;;;30.00;35.54;100111.19;4269152;33;34264;-81
2023/09/20 08:11:16;;;;;;;;;;;;;;;30.85;33.98;100111.13;4280642;33;34746;-78
2023/09/20 08:13:54;;;;;;;;;;;;;;;30.88;34.48;100108.37;4270880;33;33999;-75
2023/09/20 08:16:22;;;;;;;;;;;;;;;31.04;33.81;100109.62;4264210;33;34939;-75
2023/09/20 08:19:04;;;;;;;;;;;;;;;31.48;33.87;100109.84;4268702;33;33808;-77
2023/09/20 08:21:32;;;;;;;;;;;;;;;31.38;34.46;100111.09;4272429;33;34253;-74
2023/09/20 09:00:27;;;;;;;;;;;;;;;34.78;28.12;100095.66;4275521;33;34299;-80
2023/09/20 09:02:57;;;;;;;;;;;;;;;34.83;28.87;100090.94;4276701;33;34158;-77
2023/09/20 09:05:27;;;;;;;;;;;;;;;35.03;28.92;100093.44;4278324;33;34699;-83
2023/09/20 09:07:59;;;;;;;;;;;;;;;35.15;28.68;100091.06;4271649;33;34266;-75
2023/09/20 09:10:26;;;;;;;;;;;;;;;35.57;27.66;100087.91;4281062;33;34551;-78
2023/09/20 09:12:55;;;;;;;;;;;;;;;35.59;27.81;100080.63;4274770;33;33301;-77
2023/09/20 09:15:23;;;;;;;;;;;;;;;35.60;28.38;100070.69;4265535;33;32462;-83
2023/09/20 09:17:51;;;;;;;;;;;;;;;35.73;28.17;100066.41;4278162;33;34035;-80
2023/09/20 09:20:19;;;;;;;;;;;;;;;35.85;28.35;100064.00;4277752;33;34498;-78
2023/09/20 09:22:48;;;;;;;;;;;;;;;36.00;28.21;100053.19;4273810;33;33469;-84
2023/09/20 09:25:19;;;;;;;;;;;;;;;36.14;28.08;100065.03;4273737;33;34246;-78
2023/09/20 09:27:47;;;;;;;;;;;;;;;36.39;27.53;100053.72;4279653;33;34046;-79
2023/09/20 09:30:15;;;;;;;;;;;;;;;36.93;24.98;100058.63;4276256;33;35118;-81
2023/09/20 09:32:45;;;;;;;;;;;;;;;37.08;25.43;100054.13;4266203;33;34032;-78
2023/09/20 09:35:15;;;;;;;;;;;;;;;36.97;25.78;100049.38;4287738;33;34154;-81
2023/09/20 09:37:48;;;;;;;;;;;;;;;37.23;24.98;100039.72;4276737;33;34125;-78
2023/09/20 09:40:16;;;;;;;;;;;;;;;37.08;25.19;100037.94;4281663;33;34149;-81
2023/09/20 09:42:48;;;;;;;;;;;;;;;37.17;25.01;100032.00;4277610;33;33085;-78
2023/09/20 09:45:28;;;;;;;;;;;;;;;37.31;25.37;100031.13;4286809;33;34252;-78
2023/09/20 09:47:56;;;;;;;;;;;;;;;36.91;25.56;100038.97;4276641;33;34228;-83
2023/09/20 09:50:23;;;;;;;;;;;;;;;36.33;26.39;100032.50;4276292;33;34324;-75
2023/09/20 09:52:51;;;;;;;;;;;;;;;36.19;25.78;100031.47;4270869;33;33410;-83
2023/09/20 09:55:18;;;;;;;;;;;;;;;35.86;26.52;100028.00;4277020;33;34882;-82
2023/09/20 09:57:45;;;;;;;;;;;;;;;36.63;25.37;100034.34;4273036;33;34746;-80
2023/09/20 10:00:16;;;;;;;;;;;;;;;37.23;24.45;100036.16;4262164;33;32950;-77
2023/09/20 10:02:43;;;;;;;;;;;;;;;36.80;25.33;100031.53;4274723;33;33466;-83
2023/09/20 10:05:12;;;;;;;;;;;;;;;36.80;25.25;100034.25;4267080;33;32883;-80
2023/09/20 10:07:40;;;;;;;;;;;;;;;36.82;24.95;100029.63;4286338;33;34004;-79
2023/09/20 10:10:16;;;;;;;;;;;;;;;36.86;25.40;100020.37;4272351;33;34163;-78
2023/09/20 10:12:47;;;;;;;;;;;;;;;36.65;25.70;100024.38;4287139;33;34073;-74
2023/09/20 10:15:14;;;;;;;;;;;;;;;36.75;25.35;100020.16;4274820;33;34282;-80
2023/09/20 10:17:46;;;;;;;;;;;;;;;36.89;25.47;100022.84;4269970;33;34009;-81
2023/09/20 10:20:16;;;;;;;;;;;;;;;37.06;24.86;100015.56;4273243;33;34197;-82
2023/09/20 10:22:47;;;;;;;;;;;;;;;36.86;25.31;100014.97;4281144;33;33386;-79
2023/09/20 10:25:32;;;;;;;;;;;;;;;37.36;23.26;100002.87;4282515;33;76660;-80
2023/09/20 10:28:04;;;;;;;;;;;;;;;36.92;24.22;100002.91;4266059;33;34256;-77
2023/09/20 10:30:34;;;;;;;;;;;;;;;37.29;23.87;100009.59;4276532;33;33968;-77
2023/09/20 10:33:04;;;;;;;;;;;;;;;37.00;23.75;100014.97;4275194;33;34266;-78
2023/09/20 10:35:33;;;;;;;;;;;;;;;37.05;23.77;100008.41;4268435;33;33536;-82
2023/09/20 10:38:20;;;;;;;;;;;;;;;36.56;24.58;100007.72;4279151;33;34051;-79
2023/09/20 10:40:49;;;;;;;;;;;;;;;36.60;24.53;100006.56;4279093;33;35094;-78
2023/09/20 10:43:20;;;;;;;;;;;;;;;36.56;24.87;100007.72;4281224;33;34200;-76
2023/09/20 10:45:51;;;;;;;;;;;;;;;36.51;24.98;100004.44;4274137;33;34901;-81
2023/09/20 10:48:23;;;;;;;;;;;;;;;36.94;25.16;100001.00;4275480;33;34670;-84
2023/09/20 10:50:53;;;;;;;;;;;;;;;37.03;24.78;99994.13;4276138;33;34378;-77
2023/09/20 10:53:22;;;;;;;;;;;;;;;37.09;24.28;99999.16;4274199;33;31610;-76
2023/09/20 10:55:50;;;;;;;;;;;;;;;37.13;24.51;99989.94;4278048;33;33806;-78
2023/09/20 10:58:23;;;;;;;;;;;;;;;37.21;23.71;99982.22;4281968;33;34170;-82
2023/09/20 11:00:51;;;;;;;;;;;;;;;37.15;23.77;99983.47;4286164;33;34364;-84
2023/09/20 11:03:18;;;;;;;;;;;;;;;37.31;23.80;99972.56;4275250;33;33641;-82
2023/09/20 11:05:47;;;;;;;;;;;;;;;37.43;23.24;99967.34;4288943;33;35051;-80
2023/09/20 11:08:15;;;;;;;;;;;;;;;37.65;22.42;99975.84;4285835;33;34638;-83
2023/09/20 11:10:45;;;;;;;;;;;;;;;37.54;23.30;99967.50;4278293;33;34153;-76
2023/09/20 11:13:14;;;;;;;;;;;;;;;38.19;21.93;99974.09;4272595;33;34350;-82
2023/09/20 11:15:43;;;;;;;;;;;;;;;37.82;22.23;99968.44;4270519;33;34818;-74
2023/09/20 11:18:14;;;;;;;;;;;;;;;37.66;21.75;99960.47;4279683;33;34334;-79
2023/09/20 11:20:42;;;;;;;;;;;;;;;37.40;22.43;99949.50;4278756;33;34134;-79
2023/09/20 11:23:09;;;;;;;;;;;;;;;37.46;23.09;99953.66;4274357;33;33135;-80
2023/09/20 11:25:37;;;;;;;;;;;;;;;37.94;21.47;99959.53;4273123;33;33920;-78
2023/09/20 11:28:07;;;;;;;;;;;;;;;38.15;21.65;99952.69;4264009;33;33177;-79
2023/09/20 11:30:35;;;;;;;;;;;;;;;38.40;21.16;99951.00;4277747;33;33970;-81
2023/09/20 11:33:03;;;;;;;;;;;;;;;38.42;21.75;99954.50;4272726;33;34060;-77
2023/09/20 11:35:32;;;;;;;;;;;;;;;38.21;21.93;99951.41;4274518;33;34751;-80
2023/09/20 11:38:04;;;;;;;;;;;;;;;37.80;22.32;99951.44;4273240;33;32575;-76
2023/09/20 11:40:31;;;;;;;;;;;;;;;37.58;23.07;99952.84;4274952;33;34523;-78
2023/09/20 11:42:59;;;;;;;;;;;;;;;37.38;23.02;99949.59;4274724;33;33633;-77
2023/09/20 11:45:27;;;;;;;;;;;;;;;37.46;23.44;99948.25;4275114;33;33754;-75
2023/09/20 11:48:15;;;;;;;;;;;;;;;37.88;23.10;99941.88;4289709;33;33970;-80
2023/09/20 11:50:44;;;;;;;;;;;;;;;37.73;22.32;99941.03;4273205;33;34259;-84
2023/09/20 11:53:15;;;;;;;;;;;;;;;37.36;21.68;99932.63;4273176;33;33314;-82
2023/09/20 11:55:43;;;;;;;;;;;;;;;37.41;21.85;99934.16;4262377;33;33999;-76
2023/09/20 11:58:10;;;;;;;;;;;;;;;36.74;22.80;99935.62;4262831;33;34094;-78
2023/09/20 12:00:40;;;;;;;;;;;;;;;36.60;23.26;99928.31;4274044;33;34599;-84
2023/09/20 12:03:08;;;;;;;;;;;;;;;37.07;22.72;99925.47;4274885;33;33437;-84
2023/09/20 12:05:36;;;;;;;;;;;;;;;37.38;22.80;99919.03;4286575;33;34129;-79
2023/09/20 12:08:06;;;;;;;;;;;;;;;37.79;22.11;99920.00;4282101;33;35124;-77
2023/09/20 12:10:34;;;;;;;;;;;;;;;37.53;22.17;99918.03;4274125;33;34888;-80
2023/09/20 12:13:01;;;;;;;;;;;;;;;37.36;22.60;99919.09;4275922;33;34189;-78
2023/09/20 12:15:29;;;;;;;;;;;;;;;37.23;22.87;99920.00;4276680;33;34770;-76
2023/09/20 12:17:56;;;;;;;;;;;;;;;37.24;22.78;99917.19;4284831;33;34219;-81
2023/09/20 12:20:24;;;;;;;;;;;;;;;37.54;22.25;99911.63;4281729;33;35060;-81
2023/09/20 12:22:53;;;;;;;;;;;;;;;37.08;23.02;99903.78;4279015;33;35021;-77
2023/09/20 12:25:20;;;;;;;;;;;;;;;37.29;22.97;99903.41;4281755;33;35653;-80
2023/09/20 12:27:48;;;;;;;;;;;;;;;37.02;23.12;99901.47;4285529;33;33983;-78
2023/09/20 12:30:15;;;;;;;;;;;;;;;37.41;23.00;99894.47;4280309;33;34187;-76
2023/09/20 12:32:43;;;;;;;;;;;;;;;37.86;21.16;99905.06;4279696;33;33530;-75
2023/09/20 12:35:10;;;;;;;;;;;;;;;37.42;22.09;99892.63;4285926;33;35072;-80
2023/09/20 12:37:38;;;;;;;;;;;;;;;37.70;21.50;99887.19;4276175;33;34949;-77
2023/09/20 12:40:08;;;;;;;;;;;;;;;37.68;21.62;99889.13;4279682;33;34032;-80
2023/09/20 12:42:37;;;;;;;;;;;;;;;37.51;21.58;99883.94;4282317;33;33198;-76
2023/09/20 12:45:08;;;;;;;;;;;;;;;37.62;21.66;99881.41;4279727;33;34217;-79
2023/09/20 12:47:39;;;;;;;;;;;;;;;37.66;21.88;99869.44;4283541;33;35399;-80
2023/09/20 12:50:12;;;;;;;;;;;;;;;38.04;21.29;99874.09;4266835;33;34263;-78
2023/09/20 12:52:42;;;;;;;;;;;;;;;37.96;21.40;99877.31;4272994;33;34428;-80
2023/09/20 12:55:11;;;;;;;;;;;;;;;37.56;21.78;99873.69;4276818;33;34116;-81
2023/09/20 12:57:40;;;;;;;;;;;;;;;37.37;21.61;99856.00;4284218;33;34792;-81
2023/09/20 13:00:10;;;;;;;;;;;;;;;37.20;22.83;99853.53;4279554;33;34452;-76
2023/09/20 13:02:38;;;;;;;;;;;;;;;37.84;22.14;99861.06;4279973;33;33408;-79
2023/09/20 13:05:07;;;;;;;;;;;;;;;37.77;22.11;99849.81;4272180;33;34066;-78
2023/09/20 13:07:34;;;;;;;;;;;;;;;37.73;21.51;99849.13;4272626;33;33833;-80
2023/09/20 13:10:02;;;;;;;;;;;;;;;37.99;21.77;99837.50;4276481;33;34356;-77
2023/09/20 13:12:31;;;;;;;;;;;;;;;38.63;20.44;99835.75;4274324;33;33702;-76
2023/09/20 13:14:58;;;;;;;;;;;;;;;38.69;19.44;99829.91;4274718;33;34898;-80
2023/09/20 13:17:26;;;;;;;;;;;;;;;38.55;20.05;99830.88;4265008;33;34920;-78
2023/09/20 13:19:54;;;;;;;;;;;;;;;38.55;19.66;99836.28;4263854;33;34853;-81
2023/09/20 13:22:22;;;;;;;;;;;;;;;38.08;20.41;99826.09;4282087;33;34316;-77
2023/09/20 13:24:50;;;;;;;;;;;;;;;37.89;20.25;99815.66;4265227;33;34418;-77